createdAt,value
2023-03-26T00:01:46.767Z,66.56
2023-03-26T00:04:50.081Z,66.56
2023-03-26T00:07:43.214Z,66.00
2023-03-26T00:10:47.148Z,65.45
2023-03-26T00:13:39.023Z,65.25
2023-03-26T00:16:42.914Z,66.53
2023-03-26T00:19:34.221Z,65.20
2023-03-26T00:22:37.776Z,65.79
2023-03-26T00:25:51.331Z,65.35
2023-03-26T00:28:57.978Z,65.39
2023-03-26T00:31:49.521Z,65.22
2023-03-26T00:34:52.525Z,65.84
2023-03-26T00:38:15.105Z,65.50
2023-03-26T00:41:23.212Z,65.45
2023-03-26T00:44:14.442Z,65.27
2023-03-26T00:47:16.939Z,66.18
2023-03-26T00:50:15.607Z,66.65
2023-03-26T00:53:20.134Z,66.27
2023-03-26T00:56:11.990Z,64.91
2023-03-26T00:59:15.765Z,64.88
2023-03-26T01:02:17.414Z,64.88
2023-03-26T01:05:45.589Z,65.78
2023-03-26T01:08:47.190Z,65.24
2023-03-26T01:11:50.602Z,65.62
2023-03-26T01:14:41.764Z,65.97
2023-03-26T01:17:45.574Z,65.80
2023-03-26T01:20:47.041Z,66.13
2023-03-26T01:24:05.495Z,65.30
2023-03-26T01:27:21.231Z,66.55
2023-03-26T01:30:41.641Z,65.23
2023-03-26T01:33:54.983Z,65.20
2023-03-26T01:37:13.698Z,65.30
2023-03-26T01:40:15.976Z,65.08
2023-03-26T01:43:29.291Z,65.28
2023-03-26T01:46:28.008Z,65.37
2023-03-26T01:49:31.862Z,66.28
2023-03-26T01:52:26.416Z,65.56
2023-03-26T01:55:56.359Z,66.05
2023-03-26T01:59:04.829Z,66.80
2023-03-26T02:02:11.376Z,66.28
2023-03-26T02:05:14.112Z,66.52
2023-03-26T02:08:35.854Z,67.58
2023-03-26T02:11:40.943Z,68.10
2023-03-26T02:14:44.715Z,67.65
2023-03-26T02:17:36.474Z,68.17
2023-03-26T02:20:41.833Z,67.91
2023-03-26T02:23:35.953Z,68.08
2023-03-26T02:26:39.246Z,68.62
2023-03-26T02:29:29.860Z,67.65
2023-03-26T02:32:33.434Z,68.19
2023-03-26T02:35:36.164Z,68.14
2023-03-26T02:38:42.355Z,68.09
2023-03-26T02:41:44.313Z,67.91
2023-03-26T02:44:47.349Z,68.74
2023-03-26T02:47:51.193Z,69.42
2023-03-26T02:50:56.994Z,70.19
2023-03-26T02:53:59.613Z,70.66
2023-03-26T02:57:02.619Z,70.53
2023-03-26T03:00:15.237Z,71.08
2023-03-26T03:03:27.213Z,71.36
2023-03-26T03:06:31.097Z,71.40
2023-03-26T03:09:35.276Z,72.25
2023-03-26T03:12:38.520Z,72.31
2023-03-26T03:15:57.076Z,72.07
2023-03-26T03:18:59.727Z,72.28
2023-03-26T03:22:05.414Z,73.73
2023-03-26T03:25:14.431Z,74.04
2023-03-26T03:28:18.658Z,73.87
2023-03-26T03:31:13.536Z,74.11
2023-03-26T03:34:16.755Z,73.89
2023-03-26T03:37:20.081Z,74.25
2023-03-26T03:40:22.346Z,74.89
2023-03-26T03:43:24.321Z,74.84
2023-03-26T03:46:27.477Z,75.71
2023-03-26T03:49:31.481Z,75.27
2023-03-26T03:52:34.405Z,74.81
2023-03-26T03:55:42.183Z,75.84
2023-03-26T03:58:46.406Z,75.16
2023-03-26T04:01:50.912Z,74.71
2023-03-26T04:04:54.957Z,75.26
2023-03-26T04:08:00.269Z,74.25
2023-03-26T04:11:03.844Z,75.08
2023-03-26T04:14:06.337Z,75.45
2023-03-26T04:17:09.397Z,74.76
2023-03-26T04:20:15.970Z,75.40
2023-03-26T04:23:20.161Z,76.18
2023-03-26T04:26:22.926Z,75.99
2023-03-26T04:29:44.747Z,76.34
2023-03-26T04:32:49.975Z,76.53
2023-03-26T04:36:02.531Z,77.19
2023-03-26T04:39:07.474Z,76.01
2023-03-26T04:42:11.510Z,75.84
2023-03-26T04:45:16.323Z,75.29
2023-03-26T04:48:20.572Z,75.39
2023-03-26T04:51:27.981Z,76.13
2023-03-26T04:54:31.350Z,75.80
2023-03-26T04:57:37.455Z,75.38
2023-03-26T05:00:42.183Z,75.73
2023-03-26T05:03:45.866Z,75.39
2023-03-26T05:06:49.470Z,77.14
2023-03-26T05:09:51.378Z,76.44
2023-03-26T05:12:55.777Z,76.28
2023-03-26T05:15:58.520Z,74.69
2023-03-26T05:19:00.386Z,74.46
2023-03-26T05:22:02.643Z,73.04
2023-03-26T05:25:07.492Z,69.52
2023-03-26T05:28:11.179Z,69.03
2023-03-26T05:31:15.726Z,69.23
2023-03-26T05:34:20.726Z,67.91
2023-03-26T05:37:26.270Z,67.26
2023-03-26T05:40:28.452Z,68.63
2023-03-26T05:43:31.522Z,67.83
2023-03-26T05:46:33.427Z,67.01
2023-03-26T05:49:36.522Z,65.58
2023-03-26T05:52:39.930Z,67.01
2023-03-26T05:55:46.836Z,64.18
2023-03-26T05:58:52.105Z,64.87
2023-03-26T06:01:56.550Z,65.89
2023-03-26T06:05:01.475Z,64.80
2023-03-26T06:08:08.790Z,64.77
2023-03-26T06:11:12.906Z,63.38
2023-03-26T06:14:15.515Z,64.41
2023-03-26T06:17:24.479Z,61.97
2023-03-26T06:20:29.407Z,62.35
2023-03-26T06:23:33.548Z,62.02
2023-03-26T06:26:35.938Z,61.25
2023-03-26T06:29:43.504Z,60.02
2023-03-26T06:32:47.237Z,62.24
2023-03-26T06:35:50.881Z,59.58
2023-03-26T06:38:41.943Z,58.67
2023-03-26T06:41:45.548Z,59.27
2023-03-26T06:44:48.631Z,58.07
2023-03-26T06:47:55.633Z,58.95
2023-03-26T06:50:59.140Z,60.36
2023-03-26T06:54:02.207Z,58.37
2023-03-26T06:56:53.196Z,56.96
2023-03-26T06:59:59.181Z,56.87
2023-03-26T07:03:05.277Z,56.08
2023-03-26T07:06:20.489Z,56.92
2023-03-26T07:09:25.647Z,54.20
2023-03-26T07:12:30.520Z,54.43
2023-03-26T07:15:33.225Z,53.54
2023-03-26T07:18:36.472Z,52.39
2023-03-26T07:21:40.418Z,52.56
2023-03-26T07:24:44.614Z,51.66
2023-03-26T07:28:21.800Z,51.15
2023-03-26T07:31:39.344Z,48.62
2023-03-26T07:34:53.285Z,47.51
2023-03-26T07:38:27.294Z,46.54
2023-03-26T07:41:43.399Z,45.21
2023-03-26T07:45:34.014Z,45.18
2023-03-26T07:48:48.091Z,45.07
2023-03-26T07:51:52.411Z,45.70
2023-03-26T07:54:55.738Z,47.01
2023-03-26T07:58:23.924Z,45.76
2023-03-26T08:01:47.872Z,46.06
2023-03-26T08:04:51.556Z,45.28
2023-03-26T08:08:23.116Z,45.98
2023-03-26T08:11:16.326Z,47.43
2023-03-26T08:14:36.502Z,46.81
2023-03-26T08:17:42.937Z,47.28
2023-03-26T08:20:51.366Z,48.01
2023-03-26T08:24:16.487Z,48.31
2023-03-26T08:27:40.084Z,49.55
2023-03-26T08:30:31.754Z,50.29
2023-03-26T08:33:27.681Z,50.90
2023-03-26T08:36:31.363Z,51.41
2023-03-26T08:39:22.438Z,51.74
2023-03-26T08:42:50.558Z,50.75
2023-03-26T08:46:02.301Z,51.27
2023-03-26T08:49:21.623Z,51.65
2023-03-26T08:52:30.868Z,51.31
2023-03-26T08:55:36.625Z,49.24
2023-03-26T08:58:34.062Z,48.40
2023-03-26T09:02:22.288Z,48.36
2023-03-26T09:05:19.007Z,48.29
2023-03-26T09:08:54.496Z,48.76
2023-03-26T09:12:04.805Z,48.88
2023-03-26T09:15:42.594Z,47.90
2023-03-26T09:19:03.987Z,47.33
2023-03-26T09:22:22.607Z,47.74
2023-03-26T09:25:23.816Z,48.53
2023-03-26T09:29:10.752Z,48.83
2023-03-26T09:32:20.704Z,49.10
2023-03-26T09:35:42.951Z,50.07
2023-03-26T09:38:44.790Z,49.44
2023-03-26T09:42:22.109Z,48.87
2023-03-26T09:45:06.464Z,49.35
2023-03-26T09:48:54.378Z,49.60
2023-03-26T09:52:06.226Z,50.73
2023-03-26T09:55:44.229Z,49.87
2023-03-26T09:59:13.550Z,49.95
2023-03-26T10:02:45.363Z,49.87
2023-03-26T10:06:13.883Z,47.06
2023-03-26T10:09:28.709Z,45.84
2023-03-26T10:12:46.128Z,45.72
2023-03-26T10:16:10.795Z,42.49
2023-03-26T10:19:48.335Z,42.70
2023-03-26T10:22:57.002Z,41.39
2023-03-26T10:26:16.724Z,41.41
2023-03-26T10:29:39.205Z,41.68
2023-03-26T10:33:25.084Z,38.94
2023-03-26T10:37:00.809Z,38.77
2023-03-26T10:40:22.481Z,39.58
2023-03-26T10:43:38.435Z,40.45
2023-03-26T10:46:58.647Z,38.14
2023-03-26T10:50:30.662Z,39.75
2023-03-26T10:53:54.718Z,40.55
2023-03-26T10:57:18.672Z,40.85
2023-03-26T11:00:25.701Z,39.40
2023-03-26T11:03:53.260Z,40.74
2023-03-26T11:07:45.628Z,41.08
2023-03-26T11:14:04.984Z,41.75
2023-03-26T11:17:14.691Z,41.73
2023-03-26T11:20:13.599Z,41.05
2023-03-26T11:22:54.074Z,42.45
2023-03-26T11:25:44.185Z,40.74
2023-03-26T11:28:42.133Z,41.87
2023-03-26T11:31:39.492Z,41.39
2023-03-26T11:34:19.335Z,42.48
2023-03-26T11:36:54.513Z,41.94
2023-03-26T11:39:37.807Z,41.39
2023-03-26T11:42:14.668Z,40.76
2023-03-26T11:45:22.868Z,41.42
2023-03-26T11:47:56.513Z,41.87
2023-03-26T11:50:30.035Z,41.82
2023-03-26T11:53:03.485Z,42.09
2023-03-26T11:55:32.840Z,42.45
2023-03-26T11:58:06.318Z,42.35
2023-03-26T12:00:35.988Z,42.39
2023-03-26T12:03:15.736Z,43.44
2023-03-26T12:05:50.094Z,42.44
2023-03-26T12:08:31.330Z,42.90
2023-03-26T12:11:05.791Z,43.32
2023-03-26T12:13:51.315Z,42.98
2023-03-26T12:16:20.816Z,43.54
2023-03-26T12:19:06.378Z,43.48
2023-03-26T12:21:46.931Z,43.76
2023-03-26T12:24:29.856Z,43.25
2023-03-26T12:27:20.588Z,43.31
2023-03-26T12:30:00.233Z,42.26
2023-03-26T12:32:46.221Z,40.98
2023-03-26T12:35:22.992Z,40.54
2023-03-26T12:37:51.660Z,41.91
2023-03-26T12:40:31.150Z,40.93
2023-03-26T12:44:50.183Z,40.54
2023-03-26T12:47:55.252Z,40.47
2023-03-26T12:48:44.232Z,40.14
2023-03-26T12:51:40.413Z,40.12
2023-03-26T12:54:27.171Z,40.24
2023-03-26T12:57:21.035Z,40.22
2023-03-26T12:59:50.405Z,39.18
2023-03-26T13:02:42.170Z,39.77
2023-03-26T13:05:39.441Z,40.54
2023-03-26T13:08:35.265Z,41.74
2023-03-26T13:11:32.628Z,41.28
2023-03-26T13:14:23.054Z,41.46
2023-03-26T13:17:10.152Z,41.30
2023-03-26T13:19:53.817Z,40.66
2023-03-26T13:22:50.634Z,39.51
2023-03-26T13:25:33.500Z,37.92
2023-03-26T13:28:27.041Z,35.16
2023-03-26T13:31:22.684Z,36.09
2023-03-26T13:33:53.449Z,34.00
2023-03-26T13:36:54.757Z,34.17
2023-03-26T13:39:45.596Z,34.12
2023-03-26T13:42:18.552Z,34.56
2023-03-26T13:44:52.834Z,35.68
2023-03-26T13:47:42.271Z,36.28
2023-03-26T13:50:17.668Z,35.41
2023-03-26T13:53:18.281Z,33.26
2023-03-26T13:55:53.984Z,34.64
2023-03-26T13:58:38.813Z,34.53
2023-03-26T14:01:11.055Z,34.13
2023-03-26T14:04:01.881Z,35.11
2023-03-26T14:06:54.022Z,34.55
2023-03-26T14:09:38.375Z,34.74
2023-03-26T14:12:21.296Z,34.17
2023-03-26T14:15:14.037Z,32.71
2023-03-26T14:17:47.485Z,32.88
2023-03-26T14:20:22.808Z,31.79
2023-03-26T14:23:20.599Z,32.15
2023-03-26T14:26:26.752Z,31.19
2023-03-26T14:29:33.116Z,31.26
2023-03-26T14:32:36.491Z,31.23
2023-03-26T14:35:31.582Z,32.04
2023-03-26T14:38:08.206Z,32.96
2023-03-26T14:40:58.489Z,33.64
2023-03-26T14:44:05.356Z,33.94
2023-03-26T14:47:14.524Z,32.79
2023-03-26T14:50:04.491Z,32.84
2023-03-26T14:52:50.768Z,32.94
2023-03-26T14:55:44.148Z,32.97
2023-03-26T14:58:59.176Z,33.51
2023-03-26T15:01:29.518Z,33.84
2023-03-26T15:04:21.069Z,34.16
2023-03-26T15:07:22.946Z,33.72
2023-03-26T15:10:49.635Z,34.67
2023-03-26T15:13:44.973Z,34.72
2023-03-26T15:16:50.805Z,34.05
2023-03-26T15:19:45.636Z,35.14
2023-03-26T15:22:32.182Z,35.70
2023-03-26T15:25:31.408Z,35.86
2023-03-26T15:28:18.027Z,36.41
2023-03-26T15:31:06.605Z,33.91
2023-03-26T15:34:12.578Z,33.17
2023-03-26T15:37:00.424Z,33.85
2023-03-26T15:39:59.202Z,33.70
2023-03-26T15:42:45.949Z,34.02
2023-03-26T15:45:47.467Z,34.67
2023-03-26T15:48:51.673Z,35.08
2023-03-26T15:51:22.668Z,35.07
2023-03-26T15:54:29.998Z,35.45
2023-03-26T15:57:23.496Z,35.99
2023-03-26T16:00:12.407Z,35.57
2023-03-26T16:03:11.775Z,36.33
2023-03-26T16:06:15.877Z,36.19
2023-03-26T16:09:08.676Z,36.93
2023-03-26T16:11:55.143Z,36.88
2023-03-26T16:14:36.072Z,36.19
2023-03-26T16:17:11.771Z,34.92
2023-03-26T16:19:49.714Z,35.91
2023-03-26T16:22:53.739Z,35.55
2023-03-26T16:25:28.280Z,35.69
2023-03-26T16:28:13.416Z,35.97
2023-03-26T16:30:42.353Z,36.57
2023-03-26T16:33:17.889Z,36.61
2023-03-26T16:36:14.199Z,37.33
2023-03-26T16:39:08.681Z,36.91
2023-03-26T16:41:39.963Z,37.58
2023-03-26T16:44:11.557Z,38.35
2023-03-26T16:46:51.774Z,38.35
2023-03-26T16:49:42.649Z,38.49
2023-03-26T16:52:19.912Z,39.22
2023-03-26T16:54:57.179Z,39.61
2023-03-26T16:57:43.719Z,39.74
2023-03-26T17:00:36.804Z,39.78
2023-03-26T17:03:27.889Z,39.90
2023-03-26T17:05:56.917Z,40.03
2023-03-26T17:08:49.571Z,39.96
2023-03-26T17:11:43.189Z,40.22
2023-03-26T17:14:30.711Z,40.51
2023-03-26T17:17:08.621Z,40.48
2023-03-26T17:19:49.215Z,40.70
2023-03-26T17:22:20.564Z,40.60
2023-03-26T17:25:01.486Z,40.75
2023-03-26T17:27:34.960Z,41.07
2023-03-26T17:30:42.030Z,41.57
2023-03-26T17:33:28.139Z,41.60
2023-03-26T17:36:11.932Z,42.00
2023-03-26T17:38:45.404Z,42.15
2023-03-26T17:41:55.391Z,42.42
2023-03-26T17:44:44.997Z,41.94
2023-03-26T17:47:25.372Z,42.54
2023-03-26T17:50:24.536Z,42.60
2023-03-26T17:53:04.781Z,42.61
2023-03-26T17:55:37.861Z,42.94
2023-03-26T17:58:18.543Z,43.35
2023-03-26T18:00:52.893Z,43.37
2023-03-26T18:03:31.121Z,43.16
2023-03-26T18:06:27.930Z,43.40
2023-03-26T18:09:37.721Z,43.38
2023-03-26T18:12:31.609Z,43.17
2023-03-26T18:15:22.181Z,43.32
2023-03-26T18:18:03.073Z,43.04
2023-03-26T18:20:32.546Z,43.25
2023-03-26T18:23:10.174Z,43.19
2023-03-26T18:25:40.999Z,43.89
2023-03-26T18:28:14.418Z,43.52
2023-03-26T18:30:47.337Z,43.86
2023-03-26T18:33:16.438Z,43.85
2023-03-26T18:35:52.045Z,43.67
2023-03-26T18:38:34.939Z,43.25
2023-03-26T18:41:12.369Z,43.30
2023-03-26T18:43:44.192Z,43.15
2023-03-26T18:46:14.838Z,42.94
2023-03-26T18:48:44.435Z,43.45
2023-03-26T18:51:13.501Z,43.48
2023-03-26T18:53:54.708Z,44.12
2023-03-26T18:56:37.163Z,44.66
2023-03-26T18:59:32.192Z,44.56
2023-03-26T19:02:11.648Z,44.87
2023-03-26T19:04:46.655Z,45.21
2023-03-26T19:07:25.860Z,45.18
2023-03-26T19:09:56.845Z,45.40
2023-03-26T19:12:37.361Z,45.20
2023-03-26T19:15:12.342Z,45.69
2023-03-26T19:17:47.202Z,45.66
2023-03-26T19:20:41.383Z,45.87
2023-03-26T19:23:15.409Z,45.71
2023-03-26T19:25:50.037Z,45.86
2023-03-26T19:28:29.763Z,46.14
2023-03-26T19:31:07.335Z,45.73
2023-03-26T19:33:40.147Z,46.17
2023-03-26T19:36:14.627Z,46.48
2023-03-26T19:38:44.801Z,46.85
2023-03-26T19:41:39.516Z,47.01
2023-03-26T19:44:16.871Z,47.59
2023-03-26T19:46:53.539Z,47.03
2023-03-26T19:49:33.349Z,47.13
2023-03-26T19:52:13.330Z,46.92
2023-03-26T19:54:59.059Z,47.31
2023-03-26T19:57:31.349Z,47.40
2023-03-26T20:00:09.293Z,47.54
2023-03-26T20:02:38.828Z,47.11
2023-03-26T20:05:23.102Z,47.51
2023-03-26T20:07:55.723Z,47.94
2023-03-26T20:10:24.372Z,47.49
2023-03-26T20:12:53.154Z,47.80
2023-03-26T20:15:23.415Z,47.72
2023-03-26T20:17:54.648Z,48.66
2023-03-26T20:20:25.463Z,49.85
2023-03-26T20:22:54.838Z,48.37
2023-03-26T20:25:30.230Z,48.47
2023-03-26T20:27:59.765Z,48.78
2023-03-26T20:30:37.602Z,48.63
2023-03-26T20:33:12.772Z,48.83
2023-03-26T20:35:42.932Z,48.89
2023-03-26T20:38:12.025Z,49.56
2023-03-26T20:40:41.167Z,49.36
2023-03-26T20:43:13.016Z,50.14
2023-03-26T20:45:41.706Z,50.59
2023-03-26T20:48:10.555Z,51.16
2023-03-26T20:50:50.823Z,52.19
2023-03-26T20:53:20.443Z,51.60
2023-03-26T20:55:51.081Z,53.03
2023-03-26T20:58:31.758Z,53.53
2023-03-26T21:01:02.439Z,52.93
2023-03-26T21:03:31.153Z,54.36
2023-03-26T21:06:04.022Z,53.23
2023-03-26T21:08:35.797Z,53.60
2023-03-26T21:11:05.788Z,53.41
2023-03-26T21:13:37.349Z,52.39
2023-03-26T21:16:06.686Z,52.86
2023-03-26T21:18:35.230Z,53.46
2023-03-26T21:21:39.226Z,53.94
2023-03-26T21:24:30.373Z,53.95
2023-03-26T21:27:10.927Z,55.01
2023-03-26T21:29:39.672Z,56.20
2023-03-26T21:32:12.449Z,57.34
2023-03-26T21:34:47.870Z,60.58
2023-03-26T21:37:24.371Z,63.88
2023-03-26T21:39:53.515Z,65.76
2023-03-26T21:42:22.024Z,68.86
2023-03-26T21:44:50.801Z,71.45
2023-03-26T21:47:19.504Z,72.38
2023-03-26T21:49:49.196Z,73.05
2023-03-26T21:52:17.769Z,73.96
2023-03-26T21:54:46.654Z,73.78
2023-03-26T21:57:33.995Z,74.74
2023-03-26T22:00:18.524Z,74.39
2023-03-26T22:03:01.689Z,75.09
2023-03-26T22:05:42.569Z,74.79
2023-03-26T22:08:24.634Z,75.17
2023-03-26T22:10:52.908Z,74.33
2023-03-26T22:13:21.461Z,73.82
2023-03-26T22:15:50.290Z,73.94
2023-03-26T22:18:21.488Z,74.02
2023-03-26T22:20:50.300Z,74.24
2023-03-26T22:23:19.186Z,75.55
2023-03-26T22:25:47.346Z,76.43
2023-03-26T22:28:16.083Z,76.25
2023-03-26T22:30:44.079Z,77.33
2023-03-26T22:33:12.258Z,77.55
2023-03-26T22:35:44.681Z,78.72
2023-03-26T22:38:13.099Z,79.41
2023-03-26T22:40:41.976Z,80.53
2023-03-26T22:43:10.125Z,82.43
2023-03-26T22:45:38.234Z,82.28
2023-03-26T22:48:06.729Z,83.12
2023-03-26T22:50:35.318Z,86.87
2023-03-26T22:53:03.806Z,87.89
2023-03-26T22:55:32.374Z,87.14
2023-03-26T22:58:00.564Z,85.96
2023-03-26T23:00:28.997Z,87.87
2023-03-26T23:03:00.729Z,90.79
2023-03-26T23:05:29.617Z,90.31
2023-03-26T23:07:58.477Z,88.55
2023-03-26T23:10:26.905Z,89.62
2023-03-26T23:12:55.424Z,92.20
2023-03-26T23:15:25.958Z,93.06
2023-03-26T23:17:55.372Z,93.41
2023-03-26T23:20:23.943Z,93.94
2023-03-26T23:22:52.648Z,92.90
2023-03-26T23:25:21.340Z,90.43
2023-03-26T23:27:50.648Z,90.67
2023-03-26T23:30:19.245Z,91.13
2023-03-26T23:32:47.837Z,93.24
2023-03-26T23:35:22.186Z,93.50
2023-03-26T23:37:50.943Z,93.82
2023-03-26T23:40:19.714Z,94.25
2023-03-26T23:42:48.220Z,95.47
2023-03-26T23:45:16.474Z,96.27
2023-03-26T23:47:44.914Z,95.54
2023-03-26T23:50:14.589Z,95.38
2023-03-26T23:52:45.481Z,95.56
2023-03-26T23:55:13.858Z,94.35
2023-03-26T23:57:43.316Z,95.47
